Time,TemperatureF,DewpointF,PressureIn,WindDirection,WindDirectionDegrees,WindSpeedMPH,WindSpeedGustMPH,Humidity,HourlyPrecipIn,Conditions,Clouds,dailyrainin,SoftwareType,DateUTC
2013-05-02 00:03:00,41.9,37.0,30.24,North,357,6.0,11.0,82,0.00,,,0.00,weatherlink.com 1.10,2013-05-02 04:03:00,
2013-05-02 00:18:00,41.6,37.0,30.25,North,359,2.0,9.0,83,0.00,,,0.00,weatherlink.com 1.10,2013-05-02 04:18:00,
2013-05-02 00:33:00,41.5,37.0,30.24,WNW,287,2.0,9.0,84,0.00,,,0.00,weatherlink.com 1.10,2013-05-02 04:33:00,
2013-05-02 00:48:00,41.0,37.0,30.25,WNW,283,4.0,11.0,84,0.00,,,0.00,weatherlink.com 1.10,2013-05-02 04:48:00,
2013-05-02 01:03:00,40.6,37.0,30.25,NW,316,5.0,10.0,85,0.00,,,0.00,weatherlink.com 1.10,2013-05-02 05:03:00,
2013-05-02 01:18:00,40.1,36.0,30.25,WNW,302,5.0,10.0,85,0.00,,,0.00,weatherlink.com 1.10,2013-05-02 05:18:00,
2013-05-02 01:33:00,39.8,36.0,30.24,WNW,294,8.0,10.0,86,0.00,,,0.00,weatherlink.com 1.10,2013-05-02 05:33:00,
2013-05-02 01:48:00,39.6,36.0,30.24,WNW,294,6.0,11.0,87,0.00,,,0.00,weatherlink.com 1.10,2013-05-02 05:48:00,
2013-05-02 02:03:00,39.5,36.0,30.24,NNW,343,5.0,12.0,87,0.00,,,0.00,weatherlink.com 1.10,2013-05-02 06:03:00,
2013-05-02 02:18:00,39.4,36.0,30.23,NW,319,4.0,11.0,87,0.00,,,0.00,weatherlink.com 1.10,2013-05-02 06:18:00,
2013-05-02 02:33:00,39.0,36.0,30.24,WNW,296,7.0,11.0,88,0.00,,,0.00,weatherlink.com 1.10,2013-05-02 06:33:00,
2013-05-02 02:48:00,38.7,36.0,30.24,WNW,291,1.0,7.0,89,0.00,,,0.00,weatherlink.com 1.10,2013-05-02 06:48:00,
2013-05-02 03:03:00,38.6,36.0,30.23,NW,319,4.0,6.0,89,0.00,,,0.00,weatherlink.com 1.10,2013-05-02 07:03:00,
2013-05-02 03:18:00,38.5,36.0,30.23,WNW,292,2.0,6.0,90,0.00,,,0.00,weatherlink.com 1.10,2013-05-02 07:18:00,
2013-05-02 03:34:00,38.3,36.0,30.23,WNW,297,4.0,7.0,90,0.00,,,0.00,weatherlink.com 1.10,2013-05-02 07:34:00,
2013-05-02 03:49:00,38.3,36.0,30.23,WNW,291,3.0,8.0,91,0.00,,,0.00,weatherlink.com 1.10,2013-05-02 07:49:00,
2013-05-02 04:04:00,38.4,36.0,30.23,WNW,293,2.0,7.0,91,0.00,,,0.00,weatherlink.com 1.10,2013-05-02 08:04:00,
2013-05-02 04:19:00,38.3,36.0,30.23,WNW,302,4.0,5.0,91,0.00,,,0.00,weatherlink.com 1.10,2013-05-02 08:19:00,
2013-05-02 04:34:00,38.3,36.0,30.23,NW,305,0.0,4.0,91,0.00,,,0.00,weatherlink.com 1.10,2013-05-02 08:34:00,
2013-05-02 04:49:00,38.2,36.0,30.23,WNW,294,4.0,6.0,91,0.00,,,0.00,weatherlink.com 1.10,2013-05-02 08:49:00,
2013-05-02 05:04:00,38.1,36.0,30.23,NW,323,2.0,5.0,91,0.00,,,0.00,weatherlink.com 1.10,2013-05-02 09:04:00,
2013-05-02 05:19:00,37.9,36.0,30.23,WNW,299,2.0,5.0,91,0.00,,,0.00,weatherlink.com 1.10,2013-05-02 09:19:00,
2013-05-02 05:34:00,37.8,36.0,30.23,NW,304,1.0,3.0,91,0.00,,,0.00,weatherlink.com 1.10,2013-05-02 09:34:00,
2013-05-02 05:49:00,37.6,36.0,30.24,WNW,294,1.0,2.0,92,0.00,,,0.00,weatherlink.com 1.10,2013-05-02 09:49:00,
2013-05-02 06:04:00,37.6,36.0,30.24,NNW,328,2.0,4.0,92,0.00,,,0.00,weatherlink.com 1.10,2013-05-02 10:04:00,
2013-05-02 06:19:00,37.6,36.0,30.24,NW,305,2.0,5.0,92,0.00,,,0.00,weatherlink.com 1.10,2013-05-02 10:19:00,
2013-05-02 06:34:00,37.7,36.0,30.24,NE,47,1.0,4.0,92,0.00,,,0.00,weatherlink.com 1.10,2013-05-02 10:34:00,
2013-05-02 06:49:00,37.9,36.0,30.25,NW,319,1.0,4.0,92,0.00,,,0.00,weatherlink.com 1.10,2013-05-02 10:49:00,
2013-05-02 07:04:00,38.1,36.0,30.25,North,9,1.0,3.0,91,0.00,,,0.00,weatherlink.com 1.10,2013-05-02 11:04:00,
2013-05-02 07:19:00,38.4,36.0,30.25,NW,304,0.0,3.0,91,0.00,,,0.00,weatherlink.com 1.10,2013-05-02 11:19:00,
2013-05-02 07:34:00,39.1,37.0,30.26,NW,305,1.0,3.0,91,0.00,,,0.00,weatherlink.com 1.10,2013-05-02 11:34:00,
2013-05-02 07:49:00,39.8,37.0,30.26,NNE,18,1.0,5.0,91,0.00,,,0.00,weatherlink.com 1.10,2013-05-02 11:49:00,
2013-05-02 08:04:00,40.6,38.0,30.27,West,281,0.0,3.0,90,0.00,,,0.00,weatherlink.com 1.10,2013-05-02 12:04:00,
2013-05-02 08:19:00,41.5,39.0,30.27,NW,305,1.0,2.0,89,0.00,,,0.00,weatherlink.com 1.10,2013-05-02 12:19:00,
2013-05-02 08:34:00,42.2,39.0,30.27,North,9,0.0,3.0,88,0.00,,,0.00,weatherlink.com 1.10,2013-05-02 12:34:00,
2013-05-02 08:49:00,43.2,40.0,30.27,North,4,2.0,3.0,87,0.00,,,0.00,weatherlink.com 1.10,2013-05-02 12:49:00,
2013-05-02 09:04:00,45.3,41.0,30.27,ESE,123,0.0,3.0,86,0.00,,,0.00,weatherlink.com 1.10,2013-05-02 13:04:00,
2013-05-02 09:19:00,47.8,43.0,30.28,NNE,23,4.0,4.0,82,0.00,,,0.00,weatherlink.com 1.10,2013-05-02 13:19:00,
2013-05-02 09:34:00,49.3,44.0,30.28,NE,52,0.0,3.0,82,0.00,,,0.00,weatherlink.com 1.10,2013-05-02 13:34:00,
2013-05-02 09:49:00,51.3,44.0,30.28,NNE,30,0.0,3.0,76,0.00,,,0.00,weatherlink.com 1.10,2013-05-02 13:49:00,
2013-05-02 10:04:00,52.4,45.0,30.28,East,97,5.0,6.0,75,0.00,,,0.00,weatherlink.com 1.10,2013-05-02 14:04:00,
2013-05-02 10:19:00,52.3,44.0,30.28,ESE,108,1.0,6.0,74,0.00,,,0.00,weatherlink.com 1.10,2013-05-02 14:19:00,
2013-05-02 10:34:00,52.4,44.0,30.28,East,101,5.0,6.0,73,0.00,,,0.00,weatherlink.com 1.10,2013-05-02 14:34:00,
2013-05-02 10:49:00,53.1,45.0,30.28,East,101,3.0,5.0,74,0.00,,,0.00,weatherlink.com 1.10,2013-05-02 14:49:00,
2013-05-02 11:04:00,54.1,45.0,30.28,East,95,3.0,7.0,71,0.00,,,0.00,weatherlink.com 1.10,2013-05-02 15:04:00,
2013-05-02 11:19:00,55.3,45.0,30.28,ESE,110,3.0,7.0,69,0.00,,,0.00,weatherlink.com 1.10,2013-05-02 15:19:00,
2013-05-02 11:35:00,57.0,46.0,30.27,NNE,26,2.0,6.0,68,0.00,,,0.00,weatherlink.com 1.10,2013-05-02 15:35:00,
2013-05-02 11:50:00,58.2,47.0,30.27,SE,126,2.0,11.0,66,0.00,,,0.00,weatherlink.com 1.10,2013-05-02 15:50:00,
2013-05-02 12:05:00,58.9,47.0,30.27,ESE,108,4.0,6.0,65,0.00,,,0.00,weatherlink.com 1.10,2013-05-02 16:05:00,
2013-05-02 12:20:00,59.0,47.0,30.26,ESE,107,4.0,8.0,64,0.00,,,0.00,weatherlink.com 1.10,2013-05-02 16:20:00,
2013-05-02 12:35:00,59.0,47.0,30.26,ESE,110,4.0,8.0,64,0.00,,,0.00,weatherlink.com 1.10,2013-05-02 16:35:00,
2013-05-02 12:50:00,58.4,48.0,30.26,ENE,70,2.0,8.0,68,0.00,,,0.00,weatherlink.com 1.10,2013-05-02 16:50:00,
2013-05-02 13:05:00,59.2,48.0,30.25,ESE,110,7.0,9.0,66,0.00,,,0.00,weatherlink.com 1.10,2013-05-02 17:05:00,
2013-05-02 13:20:00,60.7,49.0,30.25,ESE,120,6.0,9.0,65,0.00,,,0.00,weatherlink.com 1.10,2013-05-02 17:20:00,
2013-05-02 13:35:00,61.1,49.0,30.25,East,101,10.0,10.0,64,0.00,,,0.00,weatherlink.com 1.10,2013-05-02 17:35:00,
2013-05-02 13:50:00,61.8,49.0,30.24,ENE,70,6.0,10.0,63,0.00,,,0.00,weatherlink.com 1.10,2013-05-02 17:50:00,
2013-05-02 14:05:00,63.0,49.0,30.23,East,82,6.0,9.0,60,0.00,,,0.00,weatherlink.com 1.10,2013-05-02 18:05:00,
2013-05-02 14:20:00,63.4,49.0,30.23,ESE,108,5.0,10.0,60,0.00,,,0.00,weatherlink.com 1.10,2013-05-02 18:20:00,
2013-05-02 17:27:00,64.4,49.0,30.18,ENE,61,3.0,11.0,58,0.00,,,0.00,weatherlink.com 1.10,2013-05-02 21:27:00,
2013-05-02 17:35:00,65.2,48.0,30.18,East,98,6.0,11.0,54,0.00,,,0.00,weatherlink.com 1.10,2013-05-02 21:35:00,
2013-05-02 17:50:00,64.5,45.0,30.18,ESE,122,7.0,15.0,50,0.00,,,0.00,weatherlink.com 1.10,2013-05-02 21:50:00,
2013-05-02 18:05:00,63.0,44.0,30.18,ESE,108,10.0,12.0,50,0.00,,,0.00,weatherlink.com 1.10,2013-05-02 22:05:00,
2013-05-02 18:20:00,64.2,43.0,30.17,ESE,108,7.0,12.0,47,0.00,,,0.00,weatherlink.com 1.10,2013-05-02 22:20:00,
2013-05-02 18:35:00,63.6,43.0,30.17,ENE,70,5.0,11.0,47,0.00,,,0.00,weatherlink.com 1.10,2013-05-02 22:35:00,
2013-05-02 18:50:00,64.5,44.0,30.18,ESE,104,3.0,11.0,47,0.00,,,0.00,weatherlink.com 1.10,2013-05-02 22:50:00,
2013-05-02 19:05:00,63.2,44.0,30.18,NNE,19,4.0,7.0,49,0.00,,,0.00,weatherlink.com 1.10,2013-05-02 23:05:00,
2013-05-02 19:20:00,61.6,44.0,30.17,East,88,4.0,10.0,53,0.00,,,0.00,weatherlink.com 1.10,2013-05-02 23:20:00,
2013-05-02 19:35:00,60.9,44.0,30.17,SSE,158,3.0,8.0,55,0.00,,,0.00,weatherlink.com 1.10,2013-05-02 23:35:00,
2013-05-02 19:50:00,60.7,44.0,30.18,East,82,2.0,9.0,55,0.00,,,0.00,weatherlink.com 1.10,2013-05-02 23:50:00,
2013-05-02 20:05:00,59.8,44.0,30.18,ESE,119,3.0,10.0,57,0.00,,,0.00,weatherlink.com 1.10,2013-05-03 00:05:00,
2013-05-02 20:20:00,58.7,44.0,30.18,ENE,63,6.0,6.0,59,0.00,,,0.00,weatherlink.com 1.10,2013-05-03 00:20:00,
2013-05-02 20:35:00,56.9,44.0,30.18,NNE,21,1.0,4.0,63,0.00,,,0.00,weatherlink.com 1.10,2013-05-03 00:35:00,
2013-05-02 20:50:00,55.8,44.0,30.18,NNE,32,0.0,4.0,64,0.00,,,0.00,weatherlink.com 1.10,2013-05-03 00:50:00,
2013-05-02 21:05:00,55.2,43.0,30.18,NNE,28,0.0,2.0,64,0.00,,,0.00,weatherlink.com 1.10,2013-05-03 01:05:00,
2013-05-02 21:20:00,54.4,43.0,30.18,NE,37,1.0,2.0,66,0.00,,,0.00,weatherlink.com 1.10,2013-05-03 01:20:00,
2013-05-02 21:35:00,52.9,43.0,30.18,NNE,29,0.0,1.0,69,0.00,,,0.00,weatherlink.com 1.10,2013-05-03 01:35:00,
2013-05-02 21:50:00,50.9,43.0,30.17,NW,319,0.0,4.0,73,0.00,,,0.00,weatherlink.com 1.10,2013-05-03 01:50:00,
2013-05-02 22:05:00,48.8,42.0,30.18,NNW,345,2.0,3.0,77,0.00,,,0.00,weatherlink.com 1.10,2013-05-03 02:05:00,
2013-05-02 22:20:00,47.4,41.0,30.18,NNW,333,3.0,6.0,79,0.00,,,0.00,weatherlink.com 1.10,2013-05-03 02:20:00,
2013-05-02 22:35:00,45.5,40.0,30.18,WNW,302,5.0,8.0,81,0.00,,,0.00,weatherlink.com 1.10,2013-05-03 02:35:00,
2013-05-02 22:50:00,43.8,39.0,30.19,WNW,290,5.0,8.0,82,0.00,,,0.00,weatherlink.com 1.10,2013-05-03 02:50:00,
2013-05-02 23:05:00,42.9,38.0,30.19,WNW,302,4.0,9.0,83,0.00,,,0.00,weatherlink.com 1.10,2013-05-03 03:05:00,
2013-05-02 23:20:00,42.1,37.0,30.19,WNW,296,3.0,6.0,83,0.00,,,0.00,weatherlink.com 1.10,2013-05-03 03:20:00,
2013-05-02 23:35:00,41.3,37.0,30.19,North,355,2.0,8.0,84,0.00,,,0.00,weatherlink.com 1.10,2013-05-03 03:35:00,
2013-05-02 23:50:00,41.1,37.0,30.19,NE,36,2.0,6.0,85,0.00,,,0.00,weatherlink.com 1.10,2013-05-03 03:50:00,